Terminal Aerodrome Forecast
Issued by NWS

Home | Current Version | Previous Version | Text Only | Print | Product List | Glossary On
Versions: 1 2 3 4 5 6 7 8 9 10 11 12 13 14 15 16 17
000
FTUS41 KBTV 040013 AAA
TAFRUT
TAF AMD
KRUT 040013Z 0400/0424 19004KT P6SM VCTS FEW040CB SCT200
     FM040200 VRB03KT P6SM SCT150
     FM041500 21007KT P6SM SCT100
      AMD NOT SKED=

USA.gov is the U.S. government's official web portal to all federal, state and local government web resources and services.